Time;durP1;ratioP1;P1;durP2;ratioP2;P2;SDS_P1;SDS_P2;PMS_P1;PMS_P2;Temp;Humidity;BMP_temperature;BMP_pressure;BME280_temperature;BME280_humidity;BME280_pressure;Samples;Min_cycle;Max_cycle;Signal;HPM_P1;HPM_P2
2021/12/12 00:01:53;;;;;;;22.43;17.70;;;3.40;99.90;;;;;;5031358;28;20191;-53
2021/12/12 00:04:31;;;;;;;21.17;16.87;;;3.40;99.90;;;;;;5031479;28;20259;-50
2021/12/12 00:06:58;;;;;;;21.07;16.67;;;3.50;99.90;;;;;;5031242;28;20685;-50
2021/12/12 00:09:37;;;;;;;22.33;17.40;;;3.40;99.90;;;;;;5031134;28;20541;-55
2021/12/12 00:12:14;;;;;;;24.50;18.90;;;3.50;99.90;;;;;;5030561;28;20227;-51
2021/12/12 00:14:39;;;;;;;23.10;19.10;;;3.50;99.90;;;;;;5031040;28;20666;-55
2021/12/12 00:17:07;;;;;;;21.80;17.53;;;3.50;99.90;;;;;;5031760;28;20200;-51
2021/12/12 00:19:35;;;;;;;24.40;16.90;;;3.60;99.90;;;;;;5034909;28;20168;-50
2021/12/12 00:22:02;;;;;;;21.43;17.47;;;3.70;99.90;;;;;;5034892;28;20187;-50
2021/12/12 00:24:28;;;;;;;19.53;15.97;;;3.70;99.90;;;;;;5034719;28;20182;-50
2021/12/12 00:26:56;;;;;;;20.03;16.20;;;3.70;99.90;;;;;;5034654;28;20172;-52
2021/12/12 00:29:23;;;;;;;21.00;16.73;;;3.70;99.90;;;;;;5034647;28;20259;-53
2021/12/12 00:31:51;;;;;;;22.80;16.50;;;3.60;99.90;;;;;;5049796;22;20242;-51
2021/12/12 00:34:17;;;;;;;21.23;17.13;;;3.60;99.90;;;;;;5034340;28;20164;-53
2021/12/12 00:36:43;;;;;;;20.67;16.57;;;3.60;99.90;;;;;;5015351;28;20204;-50
2021/12/12 00:39:15;;;;;;;22.30;16.87;;;3.60;99.90;;;;;;5033215;28;20190;-49
2021/12/12 00:41:43;;;;;;;19.83;15.73;;;3.60;99.90;;;;;;5034694;28;20192;-53
2021/12/12 00:44:11;;;;;;;22.37;16.83;;;3.70;99.90;;;;;;5034541;28;20164;-48
2021/12/12 00:46:37;;;;;;;23.63;16.50;;;3.70;99.90;;;;;;5033894;28;20650;-48
2021/12/12 00:49:04;;;;;;;20.30;16.40;;;3.70;99.90;;;;;;5034235;28;20207;-53
2021/12/12 00:51:35;;;;;;;22.57;16.90;;;3.50;99.90;;;;;;5034172;28;20699;-50
2021/12/12 00:54:01;;;;;;;20.87;17.03;;;3.40;99.90;;;;;;5034217;28;20661;-48
2021/12/12 00:56:27;;;;;;;20.77;15.97;;;3.30;99.90;;;;;;5033683;28;20253;-49
2021/12/12 00:58:55;;;;;;;21.07;17.13;;;3.20;99.90;;;;;;5034256;28;20221;-48
2021/12/12 01:01:30;;;;;;;21.43;17.37;;;3.00;99.90;;;;;;5033949;28;20229;-49
2021/12/12 01:04:10;;;;;;;20.90;17.10;;;2.70;99.90;;;;;;5034132;28;20222;-48
2021/12/12 01:06:36;;;;;;;23.03;17.20;;;2.60;99.90;;;;;;5033698;28;20214;-51
2021/12/12 01:09:07;;;;;;;23.87;18.47;;;2.60;99.90;;;;;;5033978;28;20172;-48
2021/12/12 01:11:40;;;;;;;23.70;18.60;;;2.50;99.90;;;;;;5033922;28;20192;-48
2021/12/12 01:14:23;;;;;;;23.00;17.77;;;2.60;99.90;;;;;;5033954;28;20188;-49
2021/12/12 01:16:52;;;;;;;23.80;17.80;;;2.60;99.90;;;;;;5033570;28;20207;-50
2021/12/12 01:19:23;;;;;;;23.23;18.00;;;2.70;99.90;;;;;;5033793;28;20164;-48
2021/12/12 01:21:54;;;;;;;21.93;17.10;;;2.80;99.90;;;;;;5033662;28;20188;-48
2021/12/12 01:24:27;;;;;;;23.80;18.83;;;2.70;99.90;;;;;;5033807;28;20218;-51
2021/12/12 01:26:55;;;;;;;22.47;17.83;;;2.60;99.90;;;;;;5033319;28;20172;-49
2021/12/12 01:29:21;;;;;;;26.97;19.00;;;2.20;99.90;;;;;;5032545;28;20186;-47
2021/12/12 01:31:47;;;;;;;21.87;17.70;;;2.30;99.90;;;;;;5033416;28;20286;-49
2021/12/12 01:34:17;;;;;;;24.83;18.70;;;2.30;99.90;;;;;;5033459;28;20176;-48
2021/12/12 01:39:41;;;;;;;22.40;18.33;;;2.50;99.90;;;;;;5033334;28;20199;-48
2021/12/12 01:42:17;;;;;;;23.87;17.00;;;2.70;99.90;;;;;;5033385;28;20282;-49
2021/12/12 01:45:24;;;;;;;21.97;16.67;;;2.90;99.90;;;;;;5032987;28;20246;-48
2021/12/12 01:48:21;;;;;;;24.77;18.90;;;3.10;99.90;;;;;;5032733;28;20606;-49
2021/12/12 01:50:58;;;;;;;22.93;17.27;;;3.30;99.90;;;;;;5033166;28;20572;-48
2021/12/12 01:53:27;;;;;;;22.17;17.40;;;3.30;99.90;;;;;;5033237;28;20727;-52
2021/12/12 01:56:01;;;;;;;25.87;19.43;;;3.30;99.90;;;;;;5032836;28;20195;-50
2021/12/12 01:58:30;;;;;;;24.23;18.23;;;3.30;99.90;;;;;;5033040;28;20222;-51
2021/12/12 02:01:00;;;;;;;22.27;18.87;;;3.20;99.90;;;;;;5032726;28;20742;-50
2021/12/12 02:03:29;;;;;;;22.77;18.30;;;3.20;99.90;;;;;;5033019;28;20199;-49
2021/12/12 02:05:55;;;;;;;22.87;17.87;;;3.10;99.90;;;;;;5032603;28;20174;-50
2021/12/12 02:08:22;;;;;;;24.00;18.53;;;3.10;99.90;;;;;;5032917;28;20663;-49
2021/12/12 02:10:57;;;;;;;24.97;19.53;;;3.20;99.90;;;;;;5032656;28;20258;-49
2021/12/12 02:13:25;;;;;;;24.70;20.60;;;3.20;99.90;;;;;;5032858;28;20203;-52
2021/12/12 02:15:54;;;;;;;26.50;18.97;;;3.10;99.90;;;;;;5032419;28;20604;-49
2021/12/12 02:18:31;;;;;;;24.87;19.53;;;3.00;99.90;;;;;;5032742;28;20172;-50
2021/12/12 02:21:12;;;;;;;25.10;20.37;;;2.90;99.90;;;;;;5032592;28;20195;-48
2021/12/12 02:35:06;;;;;;;24.57;19.93;;;2.90;99.90;;;;;;5032727;28;20166;-52
2021/12/12 02:35:20;;;;;;;24.97;20.83;;;2.40;99.90;;;;;;4952174;29;20466;-48
2021/12/12 02:37:47;;;;;;;26.10;21.43;;;2.40;99.90;;;;;;4952038;29;20214;-48
2021/12/12 02:40:33;;;;;;;23.73;19.53;;;2.40;99.90;;;;;;4951869;28;20261;-49
2021/12/12 02:43:00;;;;;;;26.77;21.10;;;2.40;99.90;;;;;;4952046;29;20337;-51
2021/12/12 02:45:29;;;;;;;25.50;20.10;;;2.40;99.90;;;;;;4951754;28;20193;-49
2021/12/12 02:48:00;;;;;;;25.60;21.53;;;2.40;99.90;;;;;;4951881;29;20167;-50
2021/12/12 02:50:29;;;;;;;26.97;21.23;;;2.40;99.90;;;;;;4951821;28;20174;-48
2021/12/12 02:53:04;;;;;;;26.37;20.97;;;2.40;99.90;;;;;;4951790;29;20194;-48
2021/12/12 02:55:34;;;;;;;24.60;19.60;;;2.40;99.90;;;;;;4951466;29;20209;-52
2021/12/12 02:58:01;;;;;;;25.90;20.97;;;2.40;99.90;;;;;;4951861;29;20174;-48
2021/12/12 03:00:30;;;;;;;25.73;20.70;;;2.40;99.90;;;;;;4951719;29;20175;-49
2021/12/12 03:03:00;;;;;;;24.73;19.40;;;2.50;99.90;;;;;;4986370;28;20200;-48
2021/12/12 03:05:29;;;;;;;25.30;19.67;;;2.50;99.90;;;;;;5031715;28;20174;-48
2021/12/12 03:07:56;;;;;;;24.53;19.83;;;2.40;99.90;;;;;;5031900;28;20258;-49
2021/12/12 03:10:28;;;;;;;26.53;21.33;;;2.40;99.90;;;;;;5031883;28;20164;-48
2021/12/12 03:12:54;;;;;;;25.43;20.50;;;2.40;99.90;;;;;;5031792;28;20192;-48
2021/12/12 03:15:27;;;;;;;25.73;19.67;;;2.40;99.90;;;;;;5031390;28;20168;-51
2021/12/12 03:17:57;;;;;;;23.93;20.10;;;2.50;99.90;;;;;;5031654;28;20263;-53
2021/12/12 03:20:32;;;;;;;25.03;19.50;;;2.50;99.90;;;;;;5031570;28;20187;-48
2021/12/12 03:23:34;;;;;;;23.50;19.63;;;2.60;99.90;;;;;;5031610;28;20253;-51
2021/12/12 03:26:09;;;;;;;26.07;21.47;;;2.80;99.90;;;;;;4951029;28;20197;-48
2021/12/12 03:28:40;;;;;;;26.13;20.83;;;2.80;99.90;;;;;;4951325;29;20706;-49
2021/12/12 03:31:10;;;;;;;24.57;20.43;;;2.90;99.90;;;;;;4951340;28;20637;-49
2021/12/12 03:33:36;;;;;;;22.97;19.70;;;3.00;99.90;;;;;;4951479;29;20213;-48
2021/12/12 03:36:09;;;;;;;26.17;20.40;;;2.90;99.90;;;;;;4950999;29;20241;-53
2021/12/12 03:38:39;;;;;;;25.93;20.20;;;2.80;99.90;;;;;;4951415;29;20210;-52
2021/12/12 03:41:08;;;;;;;25.90;21.17;;;2.70;99.90;;;;;;4951222;28;20672;-54
2021/12/12 03:43:36;;;;;;;28.57;21.93;;;2.60;99.90;;;;;;4951372;29;20174;-49
2021/12/12 03:46:06;;;;;;;26.20;21.40;;;2.40;99.90;;;;;;4951025;29;20185;-50
2021/12/12 03:48:34;;;;;;;27.20;20.93;;;2.30;99.90;;;;;;4951277;29;20182;-48
2021/12/12 03:51:03;;;;;;;27.20;21.63;;;2.30;99.90;;;;;;4951089;28;20195;-51
2021/12/12 03:53:30;;;;;;;28.30;21.53;;;2.40;99.90;;;;;;4954030;28;20175;-49
2021/12/12 03:55:57;;;;;;;28.73;22.67;;;2.40;99.90;;;;;;4954476;28;20267;-51
2021/12/12 03:58:23;;;;;;;26.43;21.80;;;2.30;99.90;;;;;;4955008;28;20182;-48
2021/12/12 04:00:54;;;;;;;29.13;21.53;;;2.30;99.90;;;;;;4972881;28;20180;-50
2021/12/12 04:03:20;;;;;;;28.77;22.73;;;2.40;99.90;;;;;;5035127;28;20214;-51
2021/12/12 04:05:53;;;;;;;27.07;21.53;;;2.50;99.90;;;;;;5035169;28;20202;-50
2021/12/12 04:08:25;;;;;;;29.77;23.00;;;2.50;99.90;;;;;;5035309;28;20326;-48
2021/12/12 04:10:51;;;;;;;29.87;22.33;;;2.50;99.90;;;;;;5035009;28;20168;-54
2021/12/12 04:13:16;;;;;;;29.07;22.57;;;2.50;99.90;;;;;;5035179;28;20194;-52
2021/12/12 04:15:42;;;;;;;28.73;23.40;;;2.50;99.90;;;;;;5034499;28;20260;-54
2021/12/12 04:18:08;;;;;;;28.83;22.73;;;2.40;99.90;;;;;;5035190;28;20314;-50
2021/12/12 04:20:38;;;;;;;29.37;23.03;;;2.20;99.90;;;;;;5034814;28;20525;-52
2021/12/12 04:23:14;;;;;;;28.70;22.83;;;2.20;99.90;;;;;;5034987;28;20171;-53
2021/12/12 04:25:40;;;;;;;30.43;23.90;;;2.20;99.90;;;;;;5034623;28;20178;-48
2021/12/12 04:28:06;;;;;;;30.37;23.60;;;2.20;99.90;;;;;;5034738;28;20176;-54
2021/12/12 04:30:31;;;;;;;30.30;22.53;;;2.30;99.90;;;;;;5034729;28;20176;-51
2021/12/12 04:32:57;;;;;;;31.23;23.43;;;2.30;99.90;;;;;;5034493;28;20207;-48
2021/12/12 04:35:26;;;;;;;31.57;25.17;;;2.40;99.90;;;;;;5034410;28;20202;-51
2021/12/12 04:37:57;;;;;;;28.73;23.57;;;2.40;99.90;;;;;;5034728;28;20632;-50
2021/12/12 04:40:26;;;;;;;33.57;24.97;;;2.30;99.90;;;;;;5034614;28;20160;-54
2021/12/12 04:42:53;;;;;;;33.50;26.30;;;2.10;99.90;;;;;;5034369;28;20180;-50
2021/12/12 04:45:51;;;;;;;31.67;25.03;;;2.00;99.90;;;;;;5034191;28;20482;-50
2021/12/12 04:51:26;;;;;;;32.57;26.10;;;2.00;99.90;;;;;;5034258;28;20629;-52
2021/12/12 04:53:58;;;;;;;34.80;25.93;;;2.00;99.90;;;;;;5034355;28;20168;-51
2021/12/12 04:56:32;;;;;;;33.53;25.60;;;1.90;99.90;;;;;;5034000;28;20196;-48
2021/12/12 04:59:04;;;;;;;34.77;26.83;;;1.90;99.90;;;;;;5034239;28;20402;-55
2021/12/12 05:01:44;;;;;;;35.43;26.33;;;1.80;99.90;;;;;;5034050;28;20187;-54
2021/12/12 05:04:24;;;;;;;36.50;26.77;;;1.80;99.90;;;;;;5034107;28;20439;-48
2021/12/12 05:06:57;;;;;;;34.63;26.53;;;1.80;99.90;;;;;;5033899;28;20509;-53
2021/12/12 05:09:33;;;;;;;32.77;25.13;;;1.80;99.90;;;;;;5016280;28;20465;-51
2021/12/12 05:12:04;;;;;;;32.93;25.53;;;2.00;99.90;;;;;;5033911;28;20430;-50
2021/12/12 05:14:56;;;;;;;33.53;25.20;;;2.10;99.90;;;;;;5034051;28;20180;-52
2021/12/12 05:17:51;;;;;;;33.07;25.03;;;2.20;99.90;;;;;;5033932;28;20206;-53
2021/12/12 05:20:22;;;;;;;35.57;25.03;;;2.20;99.90;;;;;;5033718;28;20178;-49
2021/12/12 05:22:53;;;;;;;33.60;25.77;;;2.30;99.90;;;;;;5033024;28;20422;-54
2021/12/12 05:25:23;;;;;;;34.47;25.83;;;2.30;99.90;;;;;;5033426;28;20164;-52
2021/12/12 05:27:53;;;;;;;32.07;24.83;;;2.10;99.90;;;;;;5033823;28;20641;-51
2021/12/12 05:30:28;;;;;;;34.90;25.57;;;2.10;99.90;;;;;;5033531;28;20442;-52
2021/12/12 05:32:55;;;;;;;34.57;24.57;;;2.10;99.90;;;;;;5033456;28;20239;-53
2021/12/12 05:35:28;;;;;;;32.80;25.23;;;2.20;99.90;;;;;;5033192;28;20648;-52
2021/12/12 05:37:56;;;;;;;32.73;25.67;;;2.30;99.90;;;;;;5033610;28;20199;-52
2021/12/12 05:40:24;;;;;;;31.90;24.83;;;2.30;99.90;;;;;;5033483;28;20175;-50
2021/12/12 05:42:52;;;;;;;31.57;24.13;;;2.20;99.90;;;;;;5033412;28;20191;-51
2021/12/12 05:45:18;;;;;;;32.47;25.37;;;2.20;99.90;;;;;;5032962;28;20941;-49
2021/12/12 05:47:44;;;;;;;34.60;25.57;;;2.10;99.90;;;;;;5033554;28;20446;-50
2021/12/12 05:50:11;;;;;;;35.10;25.07;;;2.10;99.90;;;;;;5033299;28;20406;-53
2021/12/12 05:52:38;;;;;;;32.67;24.73;;;2.10;99.90;;;;;;5033230;28;20466;-49
2021/12/12 05:55:06;;;;;;;32.23;25.33;;;2.20;99.90;;;;;;5032937;28;20279;-49
2021/12/12 05:57:33;;;;;;;33.20;26.10;;;2.30;99.90;;;;;;5033085;28;20199;-52
2021/12/12 05:59:59;;;;;;;31.90;24.53;;;2.30;99.90;;;;;;5032891;28;20179;-48
2021/12/12 06:02:26;;;;;;;32.93;26.00;;;2.40;99.90;;;;;;5032950;28;20211;-48
2021/12/12 06:04:55;;;;;;;33.37;25.23;;;2.40;99.90;;;;;;5032716;28;20850;-45
2021/12/12 06:07:22;;;;;;;32.17;24.47;;;2.40;99.90;;;;;;5032949;28;20167;-49
2021/12/12 06:09:49;;;;;;;32.50;24.77;;;2.50;99.90;;;;;;5032863;28;20653;-49
2021/12/12 06:12:16;;;;;;;32.17;24.97;;;2.70;99.90;;;;;;5032717;28;20223;-48
2021/12/12 06:14:44;;;;;;;31.67;24.87;;;2.70;99.90;;;;;;5032065;28;20175;-48
2021/12/12 06:17:13;;;;;;;30.90;24.10;;;2.70;99.90;;;;;;5032838;28;20207;-51
2021/12/12 06:19:40;;;;;;;33.87;24.20;;;2.80;99.90;;;;;;5032741;28;20259;-49
2021/12/12 06:22:08;;;;;;;33.60;25.40;;;2.90;99.90;;;;;;5032569;28;20187;-50
2021/12/12 06:24:39;;;;;;;32.33;25.43;;;3.00;99.90;;;;;;5032563;28;20164;-53
2021/12/12 06:27:12;;;;;;;32.07;24.77;;;3.00;99.90;;;;;;5032528;28;20697;-49
2021/12/12 06:29:38;;;;;;;28.63;23.37;;;3.00;99.90;;;;;;5032562;28;20687;-52
2021/12/12 06:34:32;;;;;;;31.57;25.03;;;3.10;99.90;;;;;;5030352;28;20684;-49
2021/12/12 06:36:58;;;;;;;35.03;26.07;;;3.00;99.90;;;;;;5025653;28;20278;-49
2021/12/12 06:39:24;;;;;;;33.10;24.43;;;3.00;99.90;;;;;;5029604;28;20172;-44
2021/12/12 06:41:50;;;;;;;30.83;23.80;;;3.10;99.90;;;;;;5029153;28;20200;-48
2021/12/12 06:44:16;;;;;;;33.07;25.40;;;3.30;99.90;;;;;;5032083;28;20568;-48
2021/12/12 06:46:43;;;;;;;33.20;25.17;;;3.10;99.90;;;;;;5029699;28;20180;-49
2021/12/12 06:49:13;;;;;;;30.97;23.23;;;3.00;99.90;;;;;;5023879;28;20237;-49
2021/12/12 06:51:42;;;;;;;34.83;27.00;;;2.90;99.90;;;;;;5020713;28;20249;-50
2021/12/12 06:54:09;;;;;;;35.73;26.37;;;2.60;99.90;;;;;;5030251;28;20262;-49
2021/12/12 06:56:36;;;;;;;36.53;26.50;;;2.50;99.90;;;;;;5029996;28;20343;-48
2021/12/12 06:59:04;;;;;;;35.73;26.40;;;2.50;99.90;;;;;;5030302;28;20164;-52
2021/12/12 07:01:32;;;;;;;35.67;26.97;;;2.50;99.90;;;;;;5030343;28;20626;-48
2021/12/12 07:04:00;;;;;;;38.97;27.80;;;2.30;99.90;;;;;;5030495;28;20196;-53
2021/12/12 07:06:29;;;;;;;37.33;28.33;;;2.20;99.90;;;;;;5030886;28;20176;-49
2021/12/12 07:08:58;;;;;;;39.47;28.23;;;2.20;99.90;;;;;;5031334;28;20176;-47
2021/12/12 07:11:25;;;;;;;38.33;27.97;;;2.10;99.90;;;;;;5031689;28;20834;-49
2021/12/12 07:13:51;;;;;;;37.20;26.97;;;2.10;99.90;;;;;;5028477;28;20957;-52
2021/12/12 07:16:20;;;;;;;35.50;26.77;;;2.20;99.90;;;;;;5031262;28;20462;-52
2021/12/12 07:18:46;;;;;;;36.87;27.13;;;2.20;99.90;;;;;;5031829;28;20411;-51
2021/12/12 07:21:14;;;;;;;38.27;27.67;;;2.20;99.90;;;;;;5031564;28;20632;-51
2021/12/12 07:23:41;;;;;;;33.87;26.33;;;2.20;99.90;;;;;;5031786;28;20176;-48
2021/12/12 07:26:09;;;;;;;36.80;27.43;;;2.10;99.90;;;;;;5031412;28;20258;-49
2021/12/12 07:28:36;;;;;;;32.83;24.93;;;2.10;99.90;;;;;;5034790;28;20262;-48
2021/12/12 07:31:06;;;;;;;36.07;25.83;;;2.20;99.90;;;;;;5035803;28;20686;-48
2021/12/12 07:33:33;;;;;;;37.37;26.50;;;2.30;99.90;;;;;;5035685;28;20219;-50
2021/12/12 07:36:07;;;;;;;37.63;26.37;;;2.40;99.90;;;;;;5034719;28;20199;-51
2021/12/12 07:38:35;;;;;;;33.47;25.83;;;2.40;99.90;;;;;;5036145;28;20685;-49
2021/12/12 07:41:04;;;;;;;35.70;26.07;;;2.50;99.90;;;;;;5035228;28;20174;-48
2021/12/12 07:43:31;;;;;;;33.27;24.90;;;2.50;99.90;;;;;;5032594;28;20199;-47
2021/12/12 07:45:57;;;;;;;33.27;25.47;;;2.60;99.90;;;;;;5035156;28;20203;-48
2021/12/12 07:48:23;;;;;;;33.57;25.03;;;2.50;99.90;;;;;;5031060;28;20219;-50
2021/12/12 07:50:49;;;;;;;33.27;25.37;;;2.50;99.90;;;;;;5034241;28;20666;-49
2021/12/12 07:53:17;;;;;;;32.43;24.20;;;2.50;99.90;;;;;;5028983;28;20200;-47
2021/12/12 07:55:44;;;;;;;33.57;24.37;;;2.60;99.90;;;;;;5037171;28;20218;-51
2021/12/12 07:58:15;;;;;;;30.93;23.43;;;2.70;99.90;;;;;;5035035;28;20540;-49
2021/12/12 08:00:45;;;;;;;31.40;23.17;;;2.80;99.90;;;;;;5035029;28;20590;-47
2021/12/12 08:03:16;;;;;;;32.10;24.23;;;2.80;99.90;;;;;;5029027;28;20204;-51
2021/12/12 08:05:42;;;;;;;31.40;23.30;;;3.00;99.90;;;;;;5024537;28;20215;-45
2021/12/12 08:08:11;;;;;;;30.93;24.40;;;3.30;99.90;;;;;;5037590;28;20184;-48
2021/12/12 08:10:39;;;;;;;30.03;23.60;;;3.40;99.90;;;;;;5025259;28;20229;-51
2021/12/12 08:13:06;;;;;;;30.40;23.17;;;3.60;99.90;;;;;;5037475;28;20201;-49
2021/12/12 08:15:32;;;;;;;33.23;24.47;;;3.70;99.90;;;;;;5025972;28;20588;-49
2021/12/12 08:18:00;;;;;;;33.63;23.77;;;3.70;99.90;;;;;;5034583;28;20544;-48
2021/12/12 08:20:27;;;;;;;29.50;23.60;;;3.90;99.90;;;;;;5034213;28;20164;-48
2021/12/12 08:22:53;;;;;;;32.60;24.50;;;3.90;99.90;;;;;;5034903;28;20197;-47
2021/12/12 08:25:19;;;;;;;34.10;25.07;;;4.00;99.90;;;;;;5034409;28;20529;-47
2021/12/12 08:27:46;;;;;;;33.10;24.30;;;3.80;99.90;;;;;;5034609;28;20649;-44
2021/12/12 08:30:15;;;;;;;36.50;25.60;;;3.70;99.90;;;;;;5034074;28;20184;-50
2021/12/12 08:32:43;;;;;;;34.27;25.00;;;3.70;99.90;;;;;;5033750;28;20294;-46
2021/12/12 08:35:11;;;;;;;34.43;24.77;;;3.80;99.90;;;;;;5016639;28;20587;-47
2021/12/12 08:37:36;;;;;;;36.87;26.80;;;3.80;99.90;;;;;;5027601;28;20212;-51
2021/12/12 08:40:05;;;;;;;48.93;34.57;;;3.80;99.90;;;;;;5030376;28;20175;-46
2021/12/12 08:42:31;;;;;;;63.73;40.47;;;3.90;99.90;;;;;;5031226;28;20192;-47
2021/12/12 08:44:59;;;;;;;48.83;33.73;;;4.10;99.90;;;;;;5034012;28;20176;-55
2021/12/12 08:47:25;;;;;;;37.87;26.70;;;4.30;99.90;;;;;;5039489;28;20215;-46
2021/12/12 08:49:51;;;;;;;33.13;25.77;;;4.30;99.90;;;;;;5025899;28;20202;-47
2021/12/12 08:52:27;;;;;;;32.43;23.10;;;4.30;99.90;;;;;;5034008;28;20191;-50
2021/12/12 08:54:53;;;;;;;29.27;22.00;;;4.20;99.90;;;;;;5032873;28;20171;-50
2021/12/12 08:58:24;;;;;;;31.40;22.77;;;4.10;99.90;;;;;;5033148;28;20198;-48
2021/12/12 09:00:22;;;;;;;28.47;21.03;;;4.00;99.90;;;;;;5038948;28;20182;-47
2021/12/12 09:02:49;;;;;;;26.27;21.13;;;4.00;99.90;;;;;;5052545;28;20179;-45
2021/12/12 09:05:20;;;;;;;27.67;20.83;;;4.00;99.90;;;;;;5037061;28;20199;-48
2021/12/12 09:07:49;;;;;;;30.33;22.20;;;4.10;99.90;;;;;;5034114;28;20175;-46
2021/12/12 09:10:26;;;;;;;30.03;21.50;;;4.10;99.90;;;;;;5016142;28;20168;-48
2021/12/12 09:13:06;;;;;;;26.27;20.37;;;4.30;99.90;;;;;;5033878;28;20237;-53
2021/12/12 09:16:09;;;;;;;26.20;20.47;;;4.40;99.90;;;;;;5033566;28;20164;-47
2021/12/12 09:19:03;;;;;;;27.03;20.63;;;4.40;99.90;;;;;;5029012;28;20236;-47
2021/12/12 09:21:49;;;;;;;26.20;19.83;;;4.40;99.90;;;;;;5033530;28;20548;-51
2021/12/12 09:24:44;;;;;;;27.37;20.73;;;4.20;99.90;;;;;;5033711;28;20170;-46
2021/12/12 09:27:16;;;;;;;29.83;20.20;;;4.00;99.90;;;;;;5033760;28;20174;-51
2021/12/12 09:30:20;;;;;;;27.53;21.10;;;3.90;99.90;;;;;;5033697;28;20172;-47
2021/12/12 09:32:52;;;;;;;27.40;21.27;;;3.90;99.90;;;;;;5032583;28;20258;-51
2021/12/12 09:35:26;;;;;;;30.60;21.57;;;3.70;99.90;;;;;;5033323;28;20168;-47
2021/12/12 09:38:02;;;;;;;28.53;22.30;;;4.40;99.90;;;;;;5016304;28;20175;-46
2021/12/12 09:41:03;;;;;;;31.43;22.80;;;3.70;99.90;;;;;;5033440;28;20217;-52
2021/12/12 09:43:43;;;;;;;31.73;22.37;;;3.90;99.90;;;;;;5033324;28;20183;-47
2021/12/12 09:46:30;;;;;;;27.43;21.87;;;3.80;99.90;;;;;;5033127;28;20180;-52
2021/12/12 09:52:43;;;;;;;30.90;22.93;;;3.70;99.90;;;;;;5029777;28;20249;-48
2021/12/12 09:55:12;;;;;;;29.13;21.30;;;3.40;99.90;;;;;;5029475;28;20671;-51
2021/12/12 09:57:55;;;;;;;29.27;22.53;;;3.20;99.90;;;;;;5031737;28;20204;-47
2021/12/12 10:00:27;;;;;;;28.20;22.23;;;3.20;99.90;;;;;;5030271;28;20168;-48
2021/12/12 10:03:29;;;;;;;30.30;21.47;;;3.20;99.90;;;;;;5029639;28;20184;-52
2021/12/12 10:06:16;;;;;;;28.80;21.23;;;3.20;99.90;;;;;;5029498;28;20187;-50
2021/12/12 10:09:15;;;;;;;26.30;20.60;;;3.20;99.90;;;;;;5029997;28;20210;-50
2021/12/12 10:11:48;;;;;;;24.83;19.30;;;3.10;99.90;;;;;;5032313;28;20597;-48
2021/12/12 10:14:42;;;;;;;24.97;19.80;;;3.00;99.90;;;;;;5032221;28;20186;-50
2021/12/12 10:17:23;;;;;;;27.57;19.37;;;2.90;99.90;;;;;;5031145;28;20210;-48
2021/12/12 10:20:00;;;;;;;25.67;19.43;;;2.90;99.90;;;;;;5031186;28;20163;-47
2021/12/12 10:22:33;;;;;;;26.97;18.97;;;2.90;99.90;;;;;;5030589;28;20192;-51
2021/12/12 10:25:10;;;;;;;25.90;18.73;;;3.00;99.90;;;;;;5029191;28;20172;-46
2021/12/12 10:27:48;;;;;;;23.53;17.60;;;3.00;99.90;;;;;;5032463;28;20184;-46
2021/12/12 10:30:30;;;;;;;22.27;17.63;;;3.00;99.90;;;;;;5032552;28;20175;-55
2021/12/12 10:33:20;;;;;;;22.23;16.80;;;3.00;99.90;;;;;;5032364;28;20691;-51
2021/12/12 10:35:58;;;;;;;20.63;15.60;;;3.00;99.90;;;;;;5032064;28;20590;-51
2021/12/12 10:38:51;;;;;;;19.87;16.20;;;2.90;99.90;;;;;;5032437;28;20209;-47
2021/12/12 10:41:28;;;;;;;20.43;15.90;;;2.80;99.90;;;;;;5031681;28;20286;-48
2021/12/12 10:44:14;;;;;;;18.83;14.93;;;2.80;99.90;;;;;;5029731;28;20250;-48
2021/12/12 10:46:56;;;;;;;19.47;15.50;;;2.80;99.90;;;;;;5030111;28;20263;-49
2021/12/12 10:49:26;;;;;;;18.83;15.33;;;2.80;99.90;;;;;;5031745;28;20195;-47
2021/12/12 10:52:01;;;;;;;19.60;15.33;;;2.90;99.90;;;;;;5031133;28;20204;-49
2021/12/12 10:54:34;;;;;;;20.17;15.10;;;2.90;99.90;;;;;;5031694;28;20179;-53
2021/12/12 10:57:15;;;;;;;20.03;14.90;;;2.90;99.90;;;;;;5014675;28;20202;-48
2021/12/12 11:00:12;;;;;;;22.67;15.43;;;2.80;99.90;;;;;;5030753;28;20168;-51
2021/12/12 11:02:54;;;;;;;17.60;14.27;;;2.90;99.90;;;;;;5029897;28;20196;-49
2021/12/12 11:05:29;;;;;;;20.20;14.73;;;2.90;99.90;;;;;;5030174;28;20182;-52
2021/12/12 11:08:08;;;;;;;22.07;15.40;;;2.90;99.90;;;;;;5012358;28;20179;-46
2021/12/12 11:10:38;;;;;;;19.90;14.90;;;2.90;99.90;;;;;;5029544;28;20726;-53
2021/12/12 11:13:15;;;;;;;19.83;14.47;;;2.90;99.90;;;;;;5031276;28;20279;-51
2021/12/12 11:15:48;;;;;;;21.60;15.27;;;3.00;99.90;;;;;;5030840;28;20224;-54
2021/12/12 11:18:28;;;;;;;18.50;14.67;;;3.10;99.90;;;;;;5028684;28;20176;-53
2021/12/12 11:21:05;;;;;;;17.83;14.07;;;3.10;99.90;;;;;;5031588;28;20565;-50
2021/12/12 11:23:43;;;;;;;16.87;12.83;;;3.10;99.90;;;;;;5031668;28;20187;-51
2021/12/12 11:26:31;;;;;;;15.83;12.83;;;3.10;99.90;;;;;;5031460;28;20168;-47
2021/12/12 11:29:03;;;;;;;15.87;11.37;;;3.30;99.90;;;;;;5031173;28;20282;-51
2021/12/12 11:31:33;;;;;;;15.23;11.80;;;3.50;99.90;;;;;;5031122;28;20175;-48
2021/12/12 11:34:00;;;;;;;16.87;12.57;;;3.40;99.90;;;;;;5031532;28;20179;-49
2021/12/12 11:36:31;;;;;;;15.73;11.80;;;3.40;99.90;;;;;;5031258;28;20195;-51
2021/12/12 11:39:17;;;;;;;17.03;12.53;;;3.30;99.90;;;;;;5031411;28;20649;-48
2021/12/12 11:41:53;;;;;;;15.67;11.80;;;3.30;99.90;;;;;;5031417;28;20198;-49
2021/12/12 11:44:29;;;;;;;15.93;12.27;;;3.40;99.90;;;;;;5031357;28;20172;-51
2021/12/12 11:47:13;;;;;;;16.73;12.30;;;3.50;99.90;;;;;;5031439;28;20182;-51
2021/12/12 11:49:56;;;;;;;16.87;12.67;;;3.60;99.90;;;;;;5031395;28;20184;-52
2021/12/12 11:52:43;;;;;;;15.97;11.90;;;3.60;99.90;;;;;;5031460;28;20721;-50
2021/12/12 11:55:18;;;;;;;16.10;11.63;;;3.60;99.90;;;;;;5030976;28;20218;-48
2021/12/12 11:57:49;;;;;;;13.53;10.00;;;3.50;99.90;;;;;;5031272;28;20207;-49
2021/12/12 12:00:20;;;;;;;15.83;11.60;;;3.30;99.90;;;;;;5031284;28;20649;-51
2021/12/12 12:03:05;;;;;;;12.83;9.87;;;3.20;99.90;;;;;;5031304;28;20249;-51
2021/12/12 12:05:38;;;;;;;13.37;9.93;;;3.20;99.90;;;;;;5031006;28;20192;-51
2021/12/12 12:08:28;;;;;;;14.17;10.20;;;3.40;99.90;;;;;;5031275;28;20168;-50
2021/12/12 12:11:26;;;;;;;14.00;10.40;;;3.40;99.90;;;;;;5031080;28;20175;-50
2021/12/12 12:14:02;;;;;;;14.07;9.43;;;3.50;99.90;;;;;;5044903;28;20246;-51
2021/12/12 12:16:45;;;;;;;13.13;10.00;;;3.50;99.90;;;;;;5041173;28;20302;-54
2021/12/12 12:19:59;;;;;;;13.30;9.80;;;3.60;99.90;;;;;;5048567;28;20182;-50
2021/12/12 12:22:47;;;;;;;11.83;8.73;;;3.80;99.90;;;;;;5036661;28;20309;-51
2021/12/12 12:25:22;;;;;;;13.00;9.07;;;4.00;99.90;;;;;;5036587;28;20247;-46
2021/12/12 12:27:55;;;;;;;12.53;8.73;;;3.90;99.90;;;;;;5034751;28;20167;-49
2021/12/12 12:31:11;;;;;;;12.73;8.80;;;3.80;99.90;;;;;;5034858;28;20172;-47
2021/12/12 12:34:14;;;;;;;12.50;9.17;;;3.70;99.90;;;;;;5050281;22;20224;-52
2021/12/12 12:37:21;;;;;;;11.00;8.90;;;3.70;99.90;;;;;;5013834;28;20208;-49
2021/12/12 12:40:09;;;;;;;12.67;9.00;;;3.70;99.90;;;;;;5014819;28;20203;-53
2021/12/12 12:43:05;;;;;;;10.90;8.63;;;3.90;99.90;;;;;;5014781;28;20719;-51
2021/12/12 12:46:08;;;;;;;10.50;7.73;;;4.10;99.90;;;;;;4994958;28;20188;-54
2021/12/12 12:48:56;;;;;;;11.80;9.13;;;4.20;99.90;;;;;;4995119;28;20173;-52
2021/12/12 12:51:25;;;;;;;11.00;8.70;;;4.20;99.90;;;;;;4945518;28;20193;-50
2021/12/12 12:53:57;;;;;;;11.20;8.70;;;4.40;99.90;;;;;;4994934;28;20234;-51
2021/12/12 12:56:59;;;;;;;13.17;8.37;;;4.40;99.90;;;;;;4994708;28;20749;-50
2021/12/12 12:59:51;;;;;;;12.80;9.23;;;4.50;99.90;;;;;;4977505;28;20192;-49
2021/12/12 13:02:25;;;;;;;13.17;9.47;;;4.50;99.90;;;;;;4994861;28;20256;-52
2021/12/12 13:04:56;;;;;;;10.80;8.30;;;4.40;99.90;;;;;;4994497;28;20199;-52
2021/12/12 13:08:03;;;;;;;9.73;7.53;;;4.30;99.90;;;;;;4994860;28;20670;-51
2021/12/12 13:10:33;;;;;;;12.57;7.90;;;4.40;99.90;;;;;;4994697;28;20260;-52
2021/12/12 13:13:07;;;;;;;8.40;7.53;;;4.40;99.90;;;;;;4994589;28;20173;-52
2021/12/12 13:16:02;;;;;;;11.03;8.30;;;4.50;99.90;;;;;;4994305;28;20183;-53
2021/12/12 13:18:52;;;;;;;10.40;7.83;;;4.40;99.90;;;;;;4994644;28;20204;-54
2021/12/12 13:21:29;;;;;;;8.97;7.33;;;4.10;99.90;;;;;;4994441;28;20169;-50
2021/12/12 13:24:01;;;;;;;8.93;7.03;;;3.80;99.90;;;;;;4994292;28;20652;-51
2021/12/12 13:27:05;;;;;;;8.33;6.90;;;3.70;99.90;;;;;;4993475;28;20265;-50
2021/12/12 13:30:07;;;;;;;9.37;7.20;;;3.70;99.90;;;;;;4994826;28;20177;-50
2021/12/12 13:32:51;;;;;;;9.27;6.73;;;3.90;99.90;;;;;;4994559;28;20612;-49
2021/12/12 13:35:53;;;;;;;9.30;6.97;;;4.20;99.90;;;;;;4993910;28;20185;-50